Main page
METAR-TAF:

METAR-TAF

Airports :

Shanghai Pudong International Airport

Shanghai-Pudong, China

latitude: 31-07N, longitude: 121-46E, elevation: 4 m

Current weather observation

The report was made 23 minutes ago, at 04:00 UTC
Wind 12 kt from the North
Temperature 21°C
Humidity 64%
Pressure 1018 hPa
Visibility 10 km or more
no clouds below 1500 m and no cumulonimbus

METAR: ZSPD 170400Z 36006MPS CAVOK 21/14 Q1018 NOSIG

Time: 12:23 (04:23 UTC)

Forecast

The report was made 7 hours and 7 minutes ago, at 21:16 UTC
Forecast valid from 17 at 00 UTC to 17 at 24 UTC
Wind 8 kt from the North
Visibility: 6000 m
Broken clouds at a height of 1600 ft

TAF: ZSPD 162116Z 1700/1724 36004MPS 6000 BKN016 TX22/1706Z TN14/1720Z

Weather observations and forecasts of more than 4000 airports (METAR and TAF reports).

The available stations are represented by yellow and red dots on the map.

Hover mouse over dot to see the name of the station.

Then click to see weather observations and forecasts.

To change the map : click on the green buttons with a black cross to zoom in, on the green button with a dash to zoom out, or on the green arrows for adjacent maps.


METAR-TAF: